createdAt,value
2022-10-18T00:00:54.286Z,16.01
2022-10-18T00:03:26.331Z,16.01
2022-10-18T00:05:57.838Z,16.05
2022-10-18T00:08:29.686Z,16.11
2022-10-18T00:11:01.209Z,16.16
2022-10-18T00:13:33.059Z,16.17
2022-10-18T00:16:04.563Z,16.15
2022-10-18T00:18:36.412Z,16.20
2022-10-18T00:21:08.470Z,16.21
2022-10-18T00:23:40.286Z,16.21
2022-10-18T00:26:11.840Z,16.23
2022-10-18T00:28:43.869Z,16.23
2022-10-18T00:31:15.414Z,16.30
2022-10-18T00:33:47.245Z,16.32
2022-10-18T00:36:18.793Z,16.34
2022-10-18T00:38:50.861Z,16.32
2022-10-18T00:41:22.347Z,16.37
2022-10-18T00:43:54.215Z,16.35
2022-10-18T00:46:25.740Z,16.36
2022-10-18T00:48:57.590Z,16.34
2022-10-18T00:51:29.080Z,16.36
2022-10-18T00:54:00.752Z,16.35
2022-10-18T00:56:32.234Z,16.36
2022-10-18T00:59:04.022Z,16.33
2022-10-18T01:01:35.570Z,16.34
2022-10-18T01:04:07.393Z,16.37
2022-10-18T01:06:38.878Z,16.36
2022-10-18T01:09:11.050Z,16.37
2022-10-18T01:11:42.530Z,16.32
2022-10-18T01:14:14.526Z,16.29
2022-10-18T01:16:46.052Z,16.26
2022-10-18T01:19:17.914Z,16.29
2022-10-18T01:21:49.457Z,16.32
2022-10-18T01:24:21.289Z,16.36
2022-10-18T01:26:52.775Z,16.37
2022-10-18T01:29:24.595Z,16.38
2022-10-18T01:31:57.666Z,16.34
2022-10-18T01:34:31.346Z,16.32
2022-10-18T01:37:03.278Z,16.32
2022-10-18T01:39:34.813Z,16.35
2022-10-18T01:42:06.692Z,16.33
2022-10-18T01:44:38.190Z,16.34
2022-10-18T01:47:10.073Z,16.31
2022-10-18T01:49:41.569Z,16.30
2022-10-18T01:52:13.982Z,16.31
2022-10-18T01:54:45.498Z,16.29
2022-10-18T01:57:16.993Z,16.22
2022-10-18T01:59:48.497Z,16.26
2022-10-18T02:02:20.300Z,16.27
2022-10-18T02:04:51.816Z,16.32
2022-10-18T02:07:23.622Z,16.33
2022-10-18T02:09:55.105Z,16.33
2022-10-18T02:12:27.069Z,16.33
2022-10-18T02:14:58.577Z,16.31
2022-10-18T02:17:30.494Z,16.31
2022-10-18T02:20:02.611Z,16.31
2022-10-18T02:22:34.529Z,16.33
2022-10-18T02:25:06.068Z,16.36
2022-10-18T02:27:37.915Z,16.37
2022-10-18T02:30:09.863Z,16.38
2022-10-18T02:32:41.727Z,16.37
2022-10-18T02:35:13.203Z,16.41
2022-10-18T02:37:45.299Z,16.46
2022-10-18T02:40:16.793Z,16.49
2022-10-18T02:42:48.758Z,16.52
2022-10-18T02:45:20.250Z,16.54
2022-10-18T02:47:51.790Z,16.57
2022-10-18T02:50:23.287Z,16.53
2022-10-18T02:52:55.110Z,16.51
2022-10-18T02:55:26.587Z,16.52
2022-10-18T02:57:58.362Z,16.54
2022-10-18T03:00:29.883Z,16.54
2022-10-18T03:03:01.852Z,16.55
2022-10-18T03:05:33.359Z,16.60
2022-10-18T03:08:05.206Z,16.61
2022-10-18T03:10:36.695Z,16.55
2022-10-18T03:13:08.608Z,16.55
2022-10-18T03:15:40.178Z,16.60
2022-10-18T03:18:12.034Z,16.63
2022-10-18T03:20:43.551Z,16.62
2022-10-18T03:23:15.440Z,16.57
2022-10-18T03:25:46.930Z,16.49
2022-10-18T03:28:18.795Z,16.44
2022-10-18T03:30:50.283Z,16.33
2022-10-18T03:33:22.071Z,16.23
2022-10-18T03:35:53.715Z,16.23
2022-10-18T03:38:25.618Z,16.15
2022-10-18T03:40:57.110Z,16.14
2022-10-18T03:46:21.071Z,16.07
2022-10-18T03:48:52.896Z,16.05
2022-10-18T03:51:24.374Z,16.02
2022-10-18T03:53:56.406Z,16.01
2022-10-18T03:56:27.900Z,15.98
2022-10-18T03:58:59.407Z,15.97
2022-10-18T04:01:30.975Z,16.00
2022-10-18T04:04:02.998Z,15.98
2022-10-18T04:06:34.514Z,15.98
2022-10-18T04:09:09.401Z,15.97
2022-10-18T04:11:41.794Z,16.02
2022-10-18T04:14:13.365Z,16.01
2022-10-18T04:16:44.877Z,16.01
2022-10-18T04:19:16.738Z,16.00
2022-10-18T04:21:48.250Z,15.99
2022-10-18T04:24:20.171Z,15.94
2022-10-18T04:26:51.659Z,15.89
2022-10-18T04:29:23.458Z,15.90
2022-10-18T04:31:54.943Z,15.93
2022-10-18T04:34:26.795Z,15.94
2022-10-18T04:36:58.787Z,15.94
2022-10-18T04:39:30.321Z,15.89
2022-10-18T04:42:02.337Z,15.88
2022-10-18T04:44:34.398Z,15.87
2022-10-18T04:47:06.240Z,15.89
2022-10-18T04:49:37.942Z,15.89
2022-10-18T04:52:10.323Z,15.91
2022-10-18T04:54:41.812Z,15.90
2022-10-18T04:57:13.677Z,15.86
2022-10-18T04:59:45.186Z,15.82
2022-10-18T05:02:17.065Z,15.83
2022-10-18T05:04:48.568Z,15.87
2022-10-18T05:07:20.371Z,15.85
2022-10-18T05:09:51.918Z,15.81
2022-10-18T05:12:23.804Z,15.84
2022-10-18T05:14:56.808Z,15.85
2022-10-18T05:17:28.897Z,15.83
2022-10-18T05:20:00.521Z,15.82
2022-10-18T05:22:32.623Z,15.80
2022-10-18T05:25:04.308Z,15.81
2022-10-18T05:27:36.166Z,15.76
2022-10-18T05:30:07.721Z,15.79
2022-10-18T05:32:39.239Z,15.79
2022-10-18T05:35:10.740Z,15.82
2022-10-18T05:37:42.641Z,15.82
2022-10-18T05:40:14.155Z,15.78
2022-10-18T05:42:45.963Z,15.74
2022-10-18T05:45:17.469Z,15.73
2022-10-18T05:47:49.267Z,15.72
2022-10-18T05:50:20.757Z,15.69
2022-10-18T05:52:52.701Z,15.68
2022-10-18T05:55:24.210Z,15.63
2022-10-18T05:57:56.035Z,15.65
2022-10-18T06:00:27.568Z,15.70
2022-10-18T06:03:00.477Z,15.65
2022-10-18T06:05:32.294Z,15.61
2022-10-18T06:08:06.585Z,15.59
2022-10-18T06:10:41.661Z,15.60
2022-10-18T06:13:13.681Z,15.58
2022-10-18T06:15:45.288Z,15.56
2022-10-18T06:18:17.251Z,15.60
2022-10-18T06:20:48.752Z,15.59
2022-10-18T06:23:20.735Z,15.53
2022-10-18T06:25:52.231Z,15.55
2022-10-18T06:28:23.757Z,15.54
2022-10-18T06:30:55.312Z,15.50
2022-10-18T06:33:27.186Z,15.51
2022-10-18T06:35:58.756Z,15.49
2022-10-18T06:38:30.250Z,15.51
2022-10-18T06:41:02.202Z,15.53
2022-10-18T06:43:33.703Z,15.53
2022-10-18T06:46:07.143Z,15.53
2022-10-18T06:48:38.648Z,15.57
2022-10-18T06:51:10.561Z,15.68
2022-10-18T06:53:44.410Z,15.74
2022-10-18T06:56:24.919Z,15.83
2022-10-18T06:58:56.412Z,15.76
2022-10-18T07:01:31.188Z,15.72
2022-10-18T07:04:02.747Z,15.65
2022-10-18T07:06:34.560Z,15.62
2022-10-18T07:09:06.067Z,15.59
2022-10-18T07:11:38.113Z,15.62
2022-10-18T07:14:12.559Z,15.62
2022-10-18T07:16:47.280Z,15.70
2022-10-18T07:19:18.777Z,15.81
2022-10-18T07:21:50.729Z,15.89
2022-10-18T07:24:22.273Z,16.03
2022-10-18T07:26:54.228Z,16.13
2022-10-18T07:29:25.699Z,16.12
2022-10-18T07:31:57.634Z,16.17
2022-10-18T07:34:29.107Z,16.20
2022-10-18T07:37:00.909Z,16.25
2022-10-18T07:39:32.411Z,16.31
2022-10-18T07:42:04.216Z,16.27
2022-10-18T07:44:35.773Z,16.31
2022-10-18T07:47:07.857Z,16.41
2022-10-18T07:49:39.380Z,16.36
2022-10-18T07:52:11.232Z,16.43
2022-10-18T07:54:42.742Z,16.40
2022-10-18T07:57:14.556Z,16.39
2022-10-18T07:59:48.075Z,16.51
2022-10-18T08:02:20.247Z,16.57
2022-10-18T08:04:51.755Z,16.41
2022-10-18T08:07:23.586Z,16.35
2022-10-18T08:09:55.099Z,16.39
2022-10-18T08:12:26.929Z,16.37
2022-10-18T08:14:58.446Z,16.30
2022-10-18T08:17:30.500Z,16.25
2022-10-18T08:20:12.142Z,16.26
2022-10-18T08:22:51.417Z,16.33
2022-10-18T08:25:22.993Z,16.26
2022-10-18T08:27:54.903Z,16.30
2022-10-18T08:30:26.448Z,16.33
2022-10-18T08:32:58.423Z,16.25
2022-10-18T08:35:30.475Z,16.24
2022-10-18T08:38:01.958Z,16.21
2022-10-18T08:40:35.122Z,16.15
2022-10-18T08:43:07.128Z,16.12
2022-10-18T08:45:43.213Z,16.14
2022-10-18T08:48:14.937Z,16.10
2022-10-18T08:50:46.750Z,16.02
2022-10-18T08:53:18.230Z,16.06
2022-10-18T08:55:52.704Z,15.96
2022-10-18T08:58:24.664Z,15.94
2022-10-18T09:00:56.488Z,15.89
2022-10-18T09:03:28.010Z,15.77
2022-10-18T09:06:00.088Z,15.79
2022-10-18T09:08:31.582Z,15.80
2022-10-18T09:11:03.456Z,15.75
2022-10-18T09:13:34.949Z,15.73
2022-10-18T09:16:06.834Z,15.70
2022-10-18T09:18:38.309Z,15.70
2022-10-18T09:21:09.826Z,15.70
2022-10-18T09:23:41.361Z,15.74
2022-10-18T09:26:12.884Z,15.74
2022-10-18T09:28:44.501Z,15.76
2022-10-18T09:31:16.699Z,15.77
2022-10-18T09:33:48.187Z,15.89
2022-10-18T09:36:20.077Z,14.50
2022-10-18T09:38:51.588Z,16.06
2022-10-18T09:41:23.096Z,15.99
2022-10-18T09:43:54.626Z,15.96
2022-10-18T09:46:26.507Z,15.97
2022-10-18T09:48:58.049Z,15.97
2022-10-18T09:51:29.877Z,15.99
2022-10-18T09:54:01.382Z,15.95
2022-10-18T09:56:36.688Z,15.97
2022-10-18T09:59:10.996Z,15.91
2022-10-18T10:01:42.848Z,15.95
2022-10-18T10:04:15.377Z,15.92
2022-10-18T10:06:47.380Z,16.01
2022-10-18T10:09:18.919Z,16.06
2022-10-18T10:11:50.815Z,16.00
2022-10-18T10:14:26.896Z,16.05
2022-10-18T10:16:58.405Z,16.04
2022-10-18T10:19:30.332Z,16.07
2022-10-18T10:22:01.832Z,15.96
2022-10-18T10:24:33.637Z,15.97
2022-10-18T10:27:05.192Z,16.00
2022-10-18T10:29:44.492Z,15.95
2022-10-18T10:32:16.556Z,15.92
2022-10-18T10:34:48.520Z,15.87
2022-10-18T10:37:20.223Z,15.79
2022-10-18T10:40:13.755Z,15.90
2022-10-18T10:42:43.562Z,15.96
2022-10-18T10:45:15.406Z,16.04
2022-10-18T10:47:46.903Z,16.00
2022-10-18T10:50:18.751Z,16.05
2022-10-18T10:52:50.270Z,16.11
2022-10-18T10:55:34.969Z,16.26
2022-10-18T10:58:07.017Z,16.24
2022-10-18T11:00:38.848Z,16.32
2022-10-18T11:03:27.354Z,16.25
2022-10-18T11:06:01.243Z,16.26
2022-10-18T11:08:32.821Z,16.21
2022-10-18T11:11:04.712Z,16.29
2022-10-18T11:13:39.209Z,16.37
2022-10-18T11:16:11.153Z,16.34
2022-10-18T11:18:43.823Z,16.29
2022-10-18T11:21:15.796Z,16.32
2022-10-18T11:23:47.325Z,16.38
2022-10-18T11:26:19.133Z,16.34
2022-10-18T11:28:50.731Z,16.30
2022-10-18T11:31:22.577Z,16.25
2022-10-18T11:34:08.621Z,16.26
2022-10-18T11:36:46.204Z,16.27
2022-10-18T11:39:28.436Z,16.46
2022-10-18T11:41:59.948Z,16.64
2022-10-18T11:44:31.839Z,16.78
2022-10-18T11:47:03.345Z,16.88
2022-10-18T11:49:35.266Z,16.91
2022-10-18T11:52:08.952Z,16.72
2022-10-18T11:54:41.443Z,16.79
2022-10-18T11:57:12.918Z,16.69
2022-10-18T11:59:44.414Z,16.70
2022-10-18T12:02:15.908Z,16.96
2022-10-18T12:04:58.387Z,17.11
2022-10-18T12:07:39.402Z,17.26
2022-10-18T12:10:11.216Z,17.38
2022-10-18T12:12:42.728Z,17.23
2022-10-18T12:15:14.537Z,17.00
2022-10-18T12:17:49.825Z,16.93
2022-10-18T12:20:22.031Z,16.86
2022-10-18T12:22:53.577Z,16.90
2022-10-18T12:25:25.341Z,16.88
2022-10-18T12:27:56.960Z,16.80
2022-10-18T12:30:28.817Z,16.80
2022-10-18T12:33:03.709Z,16.95
2022-10-18T12:35:42.057Z,16.98
2022-10-18T12:38:13.579Z,16.85
2022-10-18T12:40:45.136Z,16.80
2022-10-18T12:43:16.623Z,16.72
2022-10-18T12:45:48.444Z,16.75
2022-10-18T12:48:19.935Z,16.79
2022-10-18T12:50:51.756Z,16.82
2022-10-18T12:53:23.237Z,16.87
2022-10-18T12:55:55.174Z,16.85
2022-10-18T12:58:26.659Z,16.93
2022-10-18T13:00:58.512Z,16.89
2022-10-18T13:03:31.147Z,16.58
2022-10-18T13:06:06.648Z,16.52
2022-10-18T13:08:39.674Z,16.44
2022-10-18T13:11:11.193Z,16.65
2022-10-18T13:13:42.792Z,16.69
2022-10-18T13:16:14.298Z,16.74
2022-10-18T13:18:46.133Z,16.86
2022-10-18T13:21:17.708Z,16.80
2022-10-18T13:23:49.574Z,16.90
2022-10-18T13:26:21.087Z,16.87
2022-10-18T13:28:53.044Z,17.08
2022-10-18T13:31:24.614Z,17.11
2022-10-18T13:33:56.433Z,17.34
2022-10-18T13:36:29.353Z,17.32
2022-10-18T13:39:04.352Z,17.47
2022-10-18T13:41:35.867Z,17.60
2022-10-18T13:44:07.828Z,17.33
2022-10-18T13:46:39.355Z,17.60
2022-10-18T13:49:11.169Z,17.71
2022-10-18T13:51:42.730Z,17.62
2022-10-18T13:54:14.737Z,17.80
2022-10-18T13:56:46.285Z,17.55
2022-10-18T13:59:18.113Z,17.47
2022-10-18T14:01:52.943Z,17.37
2022-10-18T14:04:25.027Z,17.39
2022-10-18T14:07:01.284Z,17.31
2022-10-18T14:09:44.428Z,17.26
2022-10-18T14:12:16.779Z,17.38
2022-10-18T14:14:48.595Z,17.39
2022-10-18T14:17:20.115Z,17.63
2022-10-18T14:19:52.148Z,17.78
2022-10-18T14:22:23.703Z,17.86
2022-10-18T14:24:55.569Z,17.87
2022-10-18T14:27:27.079Z,17.66
2022-10-18T14:29:58.625Z,17.75
2022-10-18T14:32:30.134Z,17.52
2022-10-18T14:35:30.539Z,17.42
2022-10-18T14:37:53.525Z,17.42
2022-10-18T14:40:25.391Z,17.62
2022-10-18T14:42:56.869Z,18.03
2022-10-18T14:45:28.891Z,18.15
2022-10-18T14:48:00.685Z,18.15
2022-10-18T14:50:32.196Z,18.09
2022-10-18T14:53:03.996Z,18.11
2022-10-18T14:55:36.058Z,18.27
2022-10-18T14:58:07.560Z,18.17
2022-10-18T15:00:39.077Z,18.08
2022-10-18T15:03:10.888Z,17.93
2022-10-18T15:05:42.370Z,17.50
2022-10-18T15:08:13.879Z,17.23
2022-10-18T15:10:45.579Z,17.01
2022-10-18T15:13:17.506Z,16.63
2022-10-18T15:15:49.234Z,16.46
2022-10-18T15:18:21.296Z,16.31
2022-10-18T15:20:52.808Z,16.19
2022-10-18T15:23:24.403Z,16.03
2022-10-18T15:25:55.889Z,15.88
2022-10-18T15:28:27.432Z,15.72
2022-10-18T15:30:59.074Z,15.64
2022-10-18T15:33:36.931Z,15.56
2022-10-18T15:36:08.421Z,15.50
2022-10-18T15:38:40.463Z,15.42
2022-10-18T15:41:11.936Z,15.36
2022-10-18T15:43:43.913Z,15.29
2022-10-18T15:46:15.423Z,15.23
2022-10-18T15:48:47.738Z,15.17
2022-10-18T15:51:19.215Z,15.09
2022-10-18T15:53:51.170Z,15.02
2022-10-18T15:56:22.663Z,14.94
2022-10-18T15:58:55.554Z,14.89
2022-10-18T16:01:27.124Z,14.84
2022-10-18T16:03:58.923Z,14.78
2022-10-18T16:06:30.508Z,14.71
2022-10-18T16:09:02.460Z,14.63
2022-10-18T16:11:33.954Z,14.58
2022-10-18T16:14:05.530Z,14.53
2022-10-18T16:16:37.037Z,14.44
2022-10-18T16:19:08.785Z,14.34
2022-10-18T16:21:40.282Z,14.31
2022-10-18T16:24:12.123Z,14.28
2022-10-18T16:26:43.614Z,14.24
2022-10-18T16:29:15.640Z,14.17
2022-10-18T16:31:47.222Z,14.07
2022-10-18T16:34:19.035Z,14.03
2022-10-18T16:36:50.525Z,13.94
2022-10-18T16:39:22.399Z,13.90
2022-10-18T16:41:53.959Z,13.86
2022-10-18T16:44:25.841Z,13.79
2022-10-18T16:46:57.344Z,13.75
2022-10-18T16:49:28.854Z,13.68
2022-10-18T16:52:00.329Z,13.64
2022-10-18T16:54:32.208Z,13.59
2022-10-18T16:57:03.697Z,13.56
2022-10-18T16:59:35.192Z,13.48
2022-10-18T17:02:09.199Z,13.44
2022-10-18T17:04:41.026Z,13.41
2022-10-18T17:07:12.872Z,13.36
2022-10-18T17:09:44.857Z,13.33
2022-10-18T17:12:16.403Z,13.31
2022-10-18T17:14:48.235Z,13.27
2022-10-18T17:17:19.739Z,13.21
2022-10-18T17:19:51.561Z,13.18
2022-10-18T17:22:23.046Z,13.13
2022-10-18T17:24:54.986Z,13.07
2022-10-18T17:27:26.491Z,13.01
2022-10-18T17:29:58.017Z,12.00
2022-10-18T17:32:29.827Z,12.96
2022-10-18T17:35:01.329Z,12.90
2022-10-18T17:37:33.386Z,12.80
2022-10-18T17:40:05.396Z,12.76
2022-10-18T17:42:37.479Z,12.82
2022-10-18T17:45:09.021Z,12.80
2022-10-18T17:47:40.562Z,12.76
2022-10-18T17:50:12.114Z,12.76
2022-10-18T17:55:20.378Z,12.68
2022-10-18T17:57:52.263Z,12.62
2022-10-18T18:00:24.615Z,12.53
2022-10-18T18:02:56.466Z,12.56
2022-10-18T18:05:28.066Z,12.53
2022-10-18T18:08:03.666Z,12.55
2022-10-18T18:10:35.978Z,12.50
2022-10-18T18:13:07.865Z,12.48
2022-10-18T18:15:39.350Z,12.43
2022-10-18T18:18:11.423Z,12.44
2022-10-18T18:20:42.916Z,12.43
2022-10-18T18:23:14.779Z,12.43
2022-10-18T18:25:46.274Z,12.40
2022-10-18T18:28:18.126Z,12.39
2022-10-18T18:30:49.677Z,12.38
2022-10-18T18:33:21.452Z,12.36
2022-10-18T18:35:52.932Z,12.34
2022-10-18T18:38:24.800Z,12.30
2022-10-18T18:40:56.281Z,12.26
2022-10-18T18:43:28.122Z,12.23
2022-10-18T18:45:59.704Z,12.16
2022-10-18T18:48:31.250Z,12.11
2022-10-18T18:51:03.288Z,12.06
2022-10-18T18:53:35.018Z,12.05
2022-10-18T18:56:06.564Z,12.03
2022-10-18T18:58:38.120Z,11.98
2022-10-18T19:01:10.117Z,11.95
2022-10-18T19:03:42.840Z,11.89
2022-10-18T19:06:16.201Z,11.84
2022-10-18T19:08:47.887Z,11.81
2022-10-18T19:11:19.782Z,11.77
2022-10-18T19:13:51.263Z,11.74
2022-10-18T19:16:22.860Z,11.72
2022-10-18T19:18:54.428Z,11.69
2022-10-18T19:21:26.073Z,11.66
2022-10-18T19:23:57.652Z,11.60
2022-10-18T19:26:29.233Z,11.58
2022-10-18T19:29:00.977Z,11.55
2022-10-18T19:31:33.498Z,11.52
2022-10-18T19:34:05.025Z,11.49
2022-10-18T19:36:36.948Z,11.47
2022-10-18T19:39:08.451Z,11.44
2022-10-18T19:41:39.993Z,11.42
2022-10-18T19:44:11.495Z,11.39
2022-10-18T19:46:43.000Z,11.37
2022-10-18T19:49:14.535Z,11.35
2022-10-18T19:51:46.457Z,11.34
2022-10-18T19:54:17.955Z,11.27
2022-10-18T19:56:49.785Z,11.24
2022-10-18T19:59:22.523Z,11.21
2022-10-18T20:01:54.382Z,11.21
2022-10-18T20:04:25.876Z,11.24
2022-10-18T20:06:57.665Z,11.25
2022-10-18T20:09:29.248Z,11.26
2022-10-18T20:12:01.216Z,11.28
2022-10-18T20:14:32.750Z,11.24
2022-10-18T20:17:05.947Z,11.24
2022-10-18T20:19:37.488Z,11.20
2022-10-18T20:22:09.546Z,11.14
2022-10-18T20:24:41.086Z,11.10
2022-10-18T20:27:12.615Z,11.07
2022-10-18T20:29:44.178Z,11.04
2022-10-18T20:32:15.703Z,11.00
2022-10-18T20:34:47.195Z,10.95
2022-10-18T20:37:19.130Z,10.91
2022-10-18T20:39:50.632Z,10.86
2022-10-18T20:42:22.590Z,10.80
2022-10-18T20:44:54.142Z,10.76
2022-10-18T20:47:26.125Z,10.73
2022-10-18T20:49:57.633Z,10.69
2022-10-18T20:52:29.656Z,9.15
2022-10-18T20:55:01.191Z,10.58
2022-10-18T20:57:35.678Z,10.56
2022-10-18T21:00:10.026Z,10.52
2022-10-18T21:02:41.819Z,10.50
2022-10-18T21:05:13.372Z,10.46
2022-10-18T21:07:44.885Z,10.44
2022-10-18T21:10:16.378Z,10.42
2022-10-18T21:12:48.335Z,10.39
2022-10-18T21:15:19.829Z,10.36
2022-10-18T21:17:51.989Z,10.32
2022-10-18T21:20:23.482Z,10.24
2022-10-18T21:22:57.314Z,10.22
2022-10-18T21:25:28.804Z,10.18
2022-10-18T21:28:00.637Z,10.15
2022-10-18T21:30:32.148Z,10.12
2022-10-18T21:33:04.797Z,10.07
2022-10-18T21:35:36.403Z,10.06
2022-10-18T21:38:08.276Z,10.02
2022-10-18T21:40:44.444Z,9.96
2022-10-18T21:43:16.321Z,9.95
2022-10-18T21:45:47.830Z,9.91
2022-10-18T21:48:19.727Z,9.96
2022-10-18T21:50:51.248Z,9.96
2022-10-18T21:53:23.049Z,9.95
2022-10-18T21:55:54.558Z,9.99
2022-10-18T21:58:26.379Z,9.99
2022-10-18T22:00:58.258Z,9.97
2022-10-18T22:03:29.825Z,9.93
2022-10-18T22:06:02.508Z,9.92
2022-10-18T22:08:34.004Z,9.87
2022-10-18T22:11:05.822Z,9.84
2022-10-18T22:13:37.314Z,9.80
2022-10-18T22:16:09.200Z,9.74
2022-10-18T22:18:40.829Z,9.71
2022-10-18T22:21:12.648Z,9.68
2022-10-18T22:23:44.193Z,9.64
2022-10-18T22:26:16.046Z,9.59
2022-10-18T22:28:47.619Z,9.57
2022-10-18T22:31:19.487Z,9.55
2022-10-18T22:33:51.008Z,9.53
2022-10-18T22:36:22.869Z,9.48
2022-10-18T22:38:54.388Z,9.52
2022-10-18T22:41:26.070Z,9.51
2022-10-18T22:43:59.750Z,9.52
2022-10-18T22:46:34.489Z,9.56
2022-10-18T22:49:05.979Z,9.65
2022-10-18T22:51:37.865Z,9.69
2022-10-18T22:54:09.669Z,9.72
2022-10-18T22:56:41.513Z,9.78
2022-10-18T22:59:13.024Z,9.83
2022-10-18T23:01:44.874Z,9.88
2022-10-18T23:04:16.364Z,9.90
2022-10-18T23:06:48.217Z,10.00
2022-10-18T23:09:19.715Z,10.06
2022-10-18T23:11:53.317Z,10.10
2022-10-18T23:14:24.831Z,10.14
2022-10-18T23:16:56.664Z,10.14
2022-10-18T23:19:28.196Z,10.14
2022-10-18T23:22:00.105Z,10.16
2022-10-18T23:24:31.631Z,10.20
2022-10-18T23:27:03.420Z,10.22
2022-10-18T23:29:34.934Z,10.22
2022-10-18T23:32:06.857Z,10.22
2022-10-18T23:34:38.359Z,10.20
2022-10-18T23:37:10.290Z,10.22
2022-10-18T23:39:41.787Z,10.23
2022-10-18T23:42:13.600Z,10.23
2022-10-18T23:44:45.122Z,10.25
2022-10-18T23:47:16.991Z,10.32
2022-10-18T23:49:48.513Z,10.33
2022-10-18T23:52:20.433Z,10.39
2022-10-18T23:54:51.972Z,10.46
2022-10-18T23:57:23.793Z,10.49
2022-10-18T23:59:55.282Z,10.46
